sensor_id;sensor_type;location;lat;lon;timestamp;pressure;altitude;pressure_sealevel;temperature;humidity
40850;BME280;26571;41.610;25.380;2023-04-09T00:02:10;98643.41;;;8.59;74.14
40850;BME280;26571;41.610;25.380;2023-04-09T00:04:35;98652.84;;;8.52;74.20
40850;BME280;26571;41.610;25.380;2023-04-09T00:07:01;98654.50;;;8.53;74.47
40850;BME280;26571;41.610;25.380;2023-04-09T00:09:26;98651.13;;;8.43;75.35
40850;BME280;26571;41.610;25.380;2023-04-09T00:11:51;98647.16;;;8.29;75.59
40850;BME280;26571;41.610;25.380;2023-04-09T00:14:17;98651.28;;;8.32;75.41
40850;BME280;26571;41.610;25.380;2023-04-09T00:16:42;98647.91;;;8.21;75.83
40850;BME280;26571;41.610;25.380;2023-04-09T00:19:07;98649.53;;;8.22;75.76
40850;BME280;26571;41.610;25.380;2023-04-09T00:21:33;98643.75;;;8.19;76.14
40850;BME280;26571;41.610;25.380;2023-04-09T00:23:58;98647.78;;;8.13;77.15
40850;BME280;26571;41.610;25.380;2023-04-09T00:26:23;98652.38;;;8.11;77.29
40850;BME280;26571;41.610;25.380;2023-04-09T00:28:48;98644.13;;;8.06;76.68
40850;BME280;26571;41.610;25.380;2023-04-09T00:31:14;98651.28;;;8.04;77.02
40850;BME280;26571;41.610;25.380;2023-04-09T00:33:39;98655.69;;;8.03;77.32
40850;BME280;26571;41.610;25.380;2023-04-09T00:36:05;98660.41;;;8.00;77.46
40850;BME280;26571;41.610;25.380;2023-04-09T00:38:30;98657.09;;;7.98;77.24
40850;BME280;26571;41.610;25.380;2023-04-09T00:40:55;98661.69;;;7.96;77.50
40850;BME280;26571;41.610;25.380;2023-04-09T00:43:21;98654.63;;;7.96;77.07
40850;BME280;26571;41.610;25.380;2023-04-09T00:45:46;98661.56;;;7.88;77.58
40850;BME280;26571;41.610;25.380;2023-04-09T00:48:12;98656.91;;;7.82;77.81
40850;BME280;26571;41.610;25.380;2023-04-09T00:50:37;98658.16;;;7.77;78.76
40850;BME280;26571;41.610;25.380;2023-04-09T00:53:03;98655.81;;;7.74;78.84
40850;BME280;26571;41.610;25.380;2023-04-09T00:55:29;98655.00;;;7.64;79.05
40850;BME280;26571;41.610;25.380;2023-04-09T00:57:54;98649.50;;;7.67;79.38
40850;BME280;26571;41.610;25.380;2023-04-09T01:00:20;98652.66;;;7.71;78.36
40850;BME280;26571;41.610;25.380;2023-04-09T01:02:45;98657.91;;;7.71;78.29
40850;BME280;26571;41.610;25.380;2023-04-09T01:05:11;98654.44;;;7.70;78.14
40850;BME280;26571;41.610;25.380;2023-04-09T01:12:53;98661.34;;;7.71;78.07
40850;BME280;26571;41.610;25.380;2023-04-09T01:15:25;98634.06;;;7.55;77.04
40850;BME280;26571;41.610;25.380;2023-04-09T01:17:52;98663.97;;;7.71;77.27
40850;BME280;26571;41.610;25.380;2023-04-09T01:31:06;98672.38;;;7.65;77.40
40850;BME280;26571;41.610;25.380;2023-04-09T01:33:33;98666.72;;;7.70;76.56
40850;BME280;26571;41.610;25.380;2023-04-09T01:35:59;98676.66;;;7.66;75.98
40850;BME280;26571;41.610;25.380;2023-04-09T01:38:25;98674.59;;;7.50;76.40
40850;BME280;26571;41.610;25.380;2023-04-09T01:40:51;98672.41;;;7.56;76.74
40850;BME280;26571;41.610;25.380;2023-04-09T01:43:18;98669.91;;;7.54;76.16
40850;BME280;26571;41.610;25.380;2023-04-09T01:45:44;98664.44;;;7.38;77.28
40850;BME280;26571;41.610;25.380;2023-04-09T01:48:10;98663.47;;;7.48;76.96
40850;BME280;26571;41.610;25.380;2023-04-09T01:50:36;98663.88;;;7.44;76.58
40850;BME280;26571;41.610;25.380;2023-04-09T01:53:01;98664.72;;;7.35;76.07
40850;BME280;26571;41.610;25.380;2023-04-09T01:55:27;98664.72;;;7.35;76.38
40850;BME280;26571;41.610;25.380;2023-04-09T01:57:52;98665.03;;;7.22;77.23
40850;BME280;26571;41.610;25.380;2023-04-09T02:00:17;98667.22;;;7.17;77.71
40850;BME280;26571;41.610;25.380;2023-04-09T02:03:26;98669.69;;;7.18;77.11
40850;BME280;26571;41.610;25.380;2023-04-09T02:05:34;98675.63;;;7.20;77.44
40850;BME280;26571;41.610;25.380;2023-04-09T02:08:01;98670.53;;;7.19;77.31
40850;BME280;26571;41.610;25.380;2023-04-09T02:10:28;98676.88;;;7.16;78.25
40850;BME280;26571;41.610;25.380;2023-04-09T02:12:55;98674.38;;;7.15;77.92
40850;BME280;26571;41.610;25.380;2023-04-09T02:15:22;98675.34;;;7.14;77.58
40850;BME280;26571;41.610;25.380;2023-04-09T02:17:48;98673.69;;;7.13;78.38
40850;BME280;26571;41.610;25.380;2023-04-09T02:20:17;98676.59;;;7.19;78.58
40850;BME280;26571;41.610;25.380;2023-04-09T02:22:43;98679.19;;;7.19;77.88
40850;BME280;26571;41.610;25.380;2023-04-09T02:25:08;98679.34;;;7.18;79.44
40850;BME280;26571;41.610;25.380;2023-04-09T02:27:33;98679.75;;;7.04;80.51
40850;BME280;26571;41.610;25.380;2023-04-09T02:29:59;98680.44;;;6.96;80.52
40850;BME280;26571;41.610;25.380;2023-04-09T02:32:24;98682.94;;;6.88;80.86
40850;BME280;26571;41.610;25.380;2023-04-09T02:34:50;98681.97;;;6.89;80.24
40850;BME280;26571;41.610;25.380;2023-04-09T02:37:15;98683.91;;;6.87;80.19
40850;BME280;26571;41.610;25.380;2023-04-09T02:39:42;98686.50;;;6.87;79.91
40850;BME280;26571;41.610;25.380;2023-04-09T02:42:07;98686.50;;;6.77;80.35
40850;BME280;26571;41.610;25.380;2023-04-09T02:44:32;98688.28;;;6.77;80.04
40850;BME280;26571;41.610;25.380;2023-04-09T02:46:58;98698.63;;;6.88;80.20
40850;BME280;26571;41.610;25.380;2023-04-09T02:49:23;98697.41;;;6.92;79.43
40850;BME280;26571;41.610;25.380;2023-04-09T02:51:49;98695.19;;;6.97;79.24
40850;BME280;26571;41.610;25.380;2023-04-09T02:54:14;98700.03;;;6.92;78.75
40850;BME280;26571;41.610;25.380;2023-04-09T02:56:40;98689.81;;;6.89;78.43
40850;BME280;26571;41.610;25.380;2023-04-09T02:59:05;98700.81;;;6.83;78.65
40850;BME280;26571;41.610;25.380;2023-04-09T03:01:30;98688.97;;;6.79;78.29
40850;BME280;26571;41.610;25.380;2023-04-09T03:03:56;98692.28;;;6.81;77.75
40850;BME280;26571;41.610;25.380;2023-04-09T03:06:21;98690.50;;;6.71;78.19
40850;BME280;26571;41.610;25.380;2023-04-09T03:08:46;98695.72;;;6.81;78.29
40850;BME280;26571;41.610;25.380;2023-04-09T03:11:11;98708.69;;;6.83;78.45
40850;BME280;26571;41.610;25.380;2023-04-09T03:13:37;98707.69;;;6.74;78.28
40850;BME280;26571;41.610;25.380;2023-04-09T03:16:02;98709.06;;;6.68;78.90
40850;BME280;26571;41.610;25.380;2023-04-09T03:18:27;98703.81;;;6.59;79.03
40850;BME280;26571;41.610;25.380;2023-04-09T03:20:53;98708.22;;;6.58;78.41
40850;BME280;26571;41.610;25.380;2023-04-09T03:23:18;98711.81;;;6.57;79.13
40850;BME280;26571;41.610;25.380;2023-04-09T03:25:43;98716.72;;;6.51;79.34
40850;BME280;26571;41.610;25.380;2023-04-09T03:28:08;98714.25;;;6.49;78.65
40850;BME280;26571;41.610;25.380;2023-04-09T03:30:34;98713.41;;;6.48;78.78
40850;BME280;26571;41.610;25.380;2023-04-09T03:32:59;98718.09;;;6.45;78.60
40850;BME280;26571;41.610;25.380;2023-04-09T03:35:24;98706.75;;;6.35;79.33
40850;BME280;26571;41.610;25.380;2023-04-09T03:37:50;98716.97;;;6.38;80.07
40850;BME280;26571;41.610;25.380;2023-04-09T03:40:16;98723.72;;;6.40;80.02
40850;BME280;26571;41.610;25.380;2023-04-09T03:42:41;98725.25;;;6.43;79.70
40850;BME280;26571;41.610;25.380;2023-04-09T03:45:07;98726.66;;;6.47;79.69
40850;BME280;26571;41.610;25.380;2023-04-09T03:47:32;98734.50;;;6.47;79.71
40850;BME280;26571;41.610;25.380;2023-04-09T03:49:57;98733.53;;;6.48;79.01
40850;BME280;26571;41.610;25.380;2023-04-09T03:52:23;98725.50;;;6.40;79.40
40850;BME280;26571;41.610;25.380;2023-04-09T03:54:48;98725.78;;;6.37;79.95
40850;BME280;26571;41.610;25.380;2023-04-09T03:57:13;98738.44;;;6.41;80.18
40850;BME280;26571;41.610;25.380;2023-04-09T03:59:38;98740.66;;;6.46;79.87
40850;BME280;26571;41.610;25.380;2023-04-09T04:02:04;98734.91;;;6.52;79.29
40850;BME280;26571;41.610;25.380;2023-04-09T04:04:29;98734.19;;;6.50;79.18
40850;BME280;26571;41.610;25.380;2023-04-09T04:06:55;98740.53;;;6.47;79.17
40850;BME280;26571;41.610;25.380;2023-04-09T04:09:20;98738.91;;;6.56;78.50
40850;BME280;26571;41.610;25.380;2023-04-09T04:11:45;98743.19;;;6.57;79.28
40850;BME280;26571;41.610;25.380;2023-04-09T04:14:10;98741.25;;;6.59;79.94
40850;BME280;26571;41.610;25.380;2023-04-09T04:16:36;98741.00;;;6.62;79.62
40850;BME280;26571;41.610;25.380;2023-04-09T04:19:01;98737.81;;;6.59;80.24
40850;BME280;26571;41.610;25.380;2023-04-09T04:21:26;98728.88;;;6.71;80.15
40850;BME280;26571;41.610;25.380;2023-04-09T04:23:51;98735.25;;;6.78;80.05
40850;BME280;26571;41.610;25.380;2023-04-09T04:26:17;98732.66;;;6.88;79.07
40850;BME280;26571;41.610;25.380;2023-04-09T04:28:42;98735.41;;;6.96;79.39
40850;BME280;26571;41.610;25.380;2023-04-09T04:31:08;98738.16;;;7.04;79.10
40850;BME280;26571;41.610;25.380;2023-04-09T04:33:34;98740.94;;;7.03;79.46
40850;BME280;26571;41.610;25.380;2023-04-09T04:36:03;98740.53;;;7.07;80.64
40850;BME280;26571;41.610;25.380;2023-04-09T04:38:28;98742.44;;;7.15;81.24
40850;BME280;26571;41.610;25.380;2023-04-09T04:40:54;98747.44;;;7.37;81.18
40850;BME280;26571;41.610;25.380;2023-04-09T04:43:19;98741.06;;;7.69;81.21
40850;BME280;26571;41.610;25.380;2023-04-09T04:45:44;98748.19;;;7.96;79.31
40850;BME280;26571;41.610;25.380;2023-04-09T04:48:10;98750.69;;;8.25;78.13
40850;BME280;26571;41.610;25.380;2023-04-09T04:50:35;98746.22;;;8.45;77.58
40850;BME280;26571;41.610;25.380;2023-04-09T04:53:00;98754.50;;;8.77;76.79
40850;BME280;26571;41.610;25.380;2023-04-09T04:55:25;98750.66;;;9.17;75.45
40850;BME280;26571;41.610;25.380;2023-04-09T04:57:51;98754.38;;;9.68;73.72
40850;BME280;26571;41.610;25.380;2023-04-09T05:00:16;98755.75;;;10.50;71.02
40850;BME280;26571;41.610;25.380;2023-04-09T05:02:42;98761.91;;;11.75;63.21
40850;BME280;26571;41.610;25.380;2023-04-09T05:05:08;98762.41;;;12.98;58.35
40850;BME280;26571;41.610;25.380;2023-04-09T05:07:33;98761.78;;;14.25;54.51
40850;BME280;26571;41.610;25.380;2023-04-09T05:09:58;98768.66;;;16.00;49.26
40850;BME280;26571;41.610;25.380;2023-04-09T05:12:23;98762.22;;;17.60;43.79
40850;BME280;26571;41.610;25.380;2023-04-09T05:14:49;98762.72;;;18.88;40.92
40850;BME280;26571;41.610;25.380;2023-04-09T05:17:14;98753.78;;;20.02;38.49
40850;BME280;26571;41.610;25.380;2023-04-09T05:19:39;98761.50;;;20.79;36.25
40850;BME280;26571;41.610;25.380;2023-04-09T05:22:05;98759.34;;;20.69;36.01
40850;BME280;26571;41.610;25.380;2023-04-09T05:24:32;98759.19;;;21.12;35.52
40850;BME280;26571;41.610;25.380;2023-04-09T05:26:57;98751.53;;;21.16;35.35
40850;BME280;26571;41.610;25.380;2023-04-09T05:29:22;98765.13;;;21.86;34.39
40850;BME280;26571;41.610;25.380;2023-04-09T05:31:47;98757.34;;;22.55;33.13
40850;BME280;26571;41.610;25.380;2023-04-09T05:34:13;98755.69;;;22.89;31.95
40850;BME280;26571;41.610;25.380;2023-04-09T05:36:38;98750.47;;;23.11;31.14
40850;BME280;26571;41.610;25.380;2023-04-09T05:39:03;98752.91;;;22.61;31.79
40850;BME280;26571;41.610;25.380;2023-04-09T05:41:28;98757.00;;;23.15;31.71
40850;BME280;26571;41.610;25.380;2023-04-09T05:43:54;98754.13;;;23.79;31.00
40850;BME280;26571;41.610;25.380;2023-04-09T05:46:19;98753.59;;;24.16;29.78
40850;BME280;26571;41.610;25.380;2023-04-09T05:48:44;98752.38;;;25.06;29.07
40850;BME280;26571;41.610;25.380;2023-04-09T05:51:10;98752.19;;;25.94;28.32
40850;BME280;26571;41.610;25.380;2023-04-09T05:53:35;98753.91;;;25.19;27.97
40850;BME280;26571;41.610;25.380;2023-04-09T05:56:01;98750.09;;;23.65;30.02
40850;BME280;26571;41.610;25.380;2023-04-09T05:58:29;98746.63;;;23.07;30.61
40850;BME280;26571;41.610;25.380;2023-04-09T06:00:54;98757.06;;;22.80;31.26
40850;BME280;26571;41.610;25.380;2023-04-09T06:03:19;98758.38;;;22.78;31.19
40850;BME280;26571;41.610;25.380;2023-04-09T06:05:44;98757.09;;;23.20;31.13
40850;BME280;26571;41.610;25.380;2023-04-09T06:08:10;98757.03;;;24.11;30.09
40850;BME280;26571;41.610;25.380;2023-04-09T06:10:36;98751.16;;;24.70;29.32
40850;BME280;26571;41.610;25.380;2023-04-09T06:13:02;98753.25;;;25.07;28.99
40850;BME280;26571;41.610;25.380;2023-04-09T06:15:27;98763.00;;;25.67;28.22
40850;BME280;26571;41.610;25.380;2023-04-09T06:17:52;98758.72;;;26.03;27.48
40850;BME280;26571;41.610;25.380;2023-04-09T06:20:18;98760.84;;;25.69;27.86
40850;BME280;26571;41.610;25.380;2023-04-09T06:22:43;98757.59;;;25.67;27.84
40850;BME280;26571;41.610;25.380;2023-04-09T06:25:08;98753.84;;;25.14;28.33
40850;BME280;26571;41.610;25.380;2023-04-09T06:27:33;98747.63;;;24.69;28.97
40850;BME280;26571;41.610;25.380;2023-04-09T06:29:59;98739.78;;;24.46;29.18
40850;BME280;26571;41.610;25.380;2023-04-09T06:32:24;98736.63;;;24.32;29.03
40850;BME280;26571;41.610;25.380;2023-04-09T06:34:49;98745.47;;;23.32;29.70
40850;BME280;26571;41.610;25.380;2023-04-09T06:37:14;98750.22;;;22.02;32.01
40850;BME280;26571;41.610;25.380;2023-04-09T06:39:40;98742.72;;;21.57;32.97
40850;BME280;26571;41.610;25.380;2023-04-09T06:42:06;98739.47;;;20.77;34.19
40850;BME280;26571;41.610;25.380;2023-04-09T06:44:32;98743.56;;;20.18;35.71
40850;BME280;26571;41.610;25.380;2023-04-09T06:46:57;98748.50;;;19.01;37.50
40850;BME280;26571;41.610;25.380;2023-04-09T06:49:22;98746.63;;;18.50;39.11
40850;BME280;26571;41.610;25.380;2023-04-09T06:51:48;98738.72;;;18.03;39.22
40850;BME280;26571;41.610;25.380;2023-04-09T06:54:13;98743.00;;;17.71;40.21
40850;BME280;26571;41.610;25.380;2023-04-09T06:56:38;98733.94;;;17.26;41.24
40850;BME280;26571;41.610;25.380;2023-04-09T06:59:04;98734.75;;;17.40;42.14
40850;BME280;26571;41.610;25.380;2023-04-09T07:01:29;98723.78;;;17.76;41.57
40850;BME280;26571;41.610;25.380;2023-04-09T07:03:55;98729.06;;;18.16;41.01
40850;BME280;26571;41.610;25.380;2023-04-09T07:06:20;98723.31;;;18.25;40.13
40850;BME280;26571;41.610;25.380;2023-04-09T07:08:45;98726.56;;;18.34;39.39
40850;BME280;26571;41.610;25.380;2023-04-09T07:11:11;98730.75;;;17.90;40.23
40850;BME280;26571;41.610;25.380;2023-04-09T07:13:36;98731.94;;;17.68;40.86
40850;BME280;26571;41.610;25.380;2023-04-09T07:16:01;98723.78;;;17.76;40.13
40850;BME280;26571;41.610;25.380;2023-04-09T07:18:27;98725.81;;;17.87;39.87
40850;BME280;26571;41.610;25.380;2023-04-09T07:20:52;98726.03;;;17.92;39.77
40850;BME280;26571;41.610;25.380;2023-04-09T07:23:17;98731.78;;;16.88;40.23
40850;BME280;26571;41.610;25.380;2023-04-09T07:25:43;98728.31;;;16.88;40.89
40850;BME280;26571;41.610;25.380;2023-04-09T07:28:08;98733.53;;;17.16;40.09
40850;BME280;26571;41.610;25.380;2023-04-09T07:30:33;98727.06;;;16.77;40.30
40850;BME280;26571;41.610;25.380;2023-04-09T07:32:59;98727.44;;;16.05;43.77
40850;BME280;26571;41.610;25.380;2023-04-09T07:35:24;98723.88;;;16.25;44.38
40850;BME280;26571;41.610;25.380;2023-04-09T07:37:49;98721.72;;;16.77;42.76
40850;BME280;26571;41.610;25.380;2023-04-09T07:40:15;98731.34;;;16.85;41.70
40850;BME280;26571;41.610;25.380;2023-04-09T07:42:40;98723.41;;;16.50;41.66
40850;BME280;26571;41.610;25.380;2023-04-09T07:45:06;98725.91;;;16.58;41.80
40850;BME280;26571;41.610;25.380;2023-04-09T07:47:32;98730.53;;;16.84;41.08
40850;BME280;26571;41.610;25.380;2023-04-09T07:49:57;98726.69;;;16.93;41.62
40850;BME280;26571;41.610;25.380;2023-04-09T07:52:22;98730.22;;;17.07;42.54
40850;BME280;26571;41.610;25.380;2023-04-09T07:54:48;98734.59;;;17.61;41.41
40850;BME280;26571;41.610;25.380;2023-04-09T07:57:13;98723.34;;;17.99;40.19
40850;BME280;26571;41.610;25.380;2023-04-09T07:59:38;98722.53;;;17.85;39.77
40850;BME280;26571;41.610;25.380;2023-04-09T08:02:03;98728.28;;;17.89;39.25
40850;BME280;26571;41.610;25.380;2023-04-09T08:04:30;98736.03;;;17.57;40.09
40850;BME280;26571;41.610;25.380;2023-04-09T08:06:55;98739.72;;;17.63;38.95
40850;BME280;26571;41.610;25.380;2023-04-09T08:09:20;98729.63;;;17.18;40.42
40850;BME280;26571;41.610;25.380;2023-04-09T08:11:46;98725.31;;;17.24;38.99
40850;BME280;26571;41.610;25.380;2023-04-09T08:14:12;98734.38;;;17.43;38.97
40850;BME280;26571;41.610;25.380;2023-04-09T08:16:38;98744.59;;;17.39;38.36
40850;BME280;26571;41.610;25.380;2023-04-09T08:19:04;98731.06;;;17.21;39.05
40850;BME280;26571;41.610;25.380;2023-04-09T08:21:30;98730.22;;;17.14;39.46
40850;BME280;26571;41.610;25.380;2023-04-09T08:23:56;98730.00;;;17.09;39.21
40850;BME280;26571;41.610;25.380;2023-04-09T08:26:25;98722.91;;;17.49;40.01
40850;BME280;26571;41.610;25.380;2023-04-09T08:28:50;98732.53;;;17.50;39.86
40850;BME280;26571;41.610;25.380;2023-04-09T08:31:16;98725.81;;;18.07;38.55
40850;BME280;26571;41.610;25.380;2023-04-09T08:33:41;98724.91;;;18.40;36.88
40850;BME280;26571;41.610;25.380;2023-04-09T08:36:07;98717.63;;;17.89;38.52
40850;BME280;26571;41.610;25.380;2023-04-09T08:38:32;98719.66;;;17.80;38.05
40850;BME280;26571;41.610;25.380;2023-04-09T08:40:57;98724.97;;;17.67;38.12
40850;BME280;26571;41.610;25.380;2023-04-09T08:43:23;98736.06;;;17.70;37.03
40850;BME280;26571;41.610;25.380;2023-04-09T08:45:49;98718.97;;;17.25;38.25
40850;BME280;26571;41.610;25.380;2023-04-09T08:48:15;98709.41;;;17.30;38.53
40850;BME280;26571;41.610;25.380;2023-04-09T08:50:40;98713.81;;;17.03;38.79
40850;BME280;26571;41.610;25.380;2023-04-09T08:53:07;98715.81;;;16.82;39.87
40850;BME280;26571;41.610;25.380;2023-04-09T08:55:32;98710.34;;;16.55;40.76
40850;BME280;26571;41.610;25.380;2023-04-09T08:58:04;98716.03;;;16.45;41.32
40850;BME280;26571;41.610;25.380;2023-04-09T09:00:31;98713.94;;;16.41;41.35
40850;BME280;26571;41.610;25.380;2023-04-09T09:03:00;98715.72;;;16.62;41.42
40850;BME280;26571;41.610;25.380;2023-04-09T09:05:35;98706.00;;;16.82;40.10
40850;BME280;26571;41.610;25.380;2023-04-09T09:08:00;98705.91;;;16.69;41.19
40850;BME280;26571;41.610;25.380;2023-04-09T09:10:38;98702.22;;;16.63;40.46
40850;BME280;26571;41.610;25.380;2023-04-09T09:15:49;98700.75;;;16.61;40.90
40850;BME280;26571;41.610;25.380;2023-04-09T09:18:17;98709.03;;;16.79;40.04
40850;BME280;26571;41.610;25.380;2023-04-09T09:20:43;98692.16;;;16.59;40.05
40850;BME280;26571;41.610;25.380;2023-04-09T09:23:08;98688.09;;;16.63;40.31
40850;BME280;26571;41.610;25.380;2023-04-09T09:25:37;98678.16;;;16.78;40.37
40850;BME280;26571;41.610;25.380;2023-04-09T09:28:09;98682.28;;;16.94;40.96
40850;BME280;26571;41.610;25.380;2023-04-09T09:30:35;98686.19;;;16.50;39.76
40850;BME280;26571;41.610;25.380;2023-04-09T09:33:09;98690.00;;;16.34;41.37
40850;BME280;26571;41.610;25.380;2023-04-09T09:35:50;98680.50;;;16.53;39.94
40850;BME280;26571;41.610;25.380;2023-04-09T09:38:16;98675.66;;;16.70;40.55
40850;BME280;26571;41.610;25.380;2023-04-09T09:40:42;98680.13;;;16.63;39.91
40850;BME280;26571;41.610;25.380;2023-04-09T09:43:08;98675.63;;;16.57;39.52
40850;BME280;26571;41.610;25.380;2023-04-09T09:45:33;98674.38;;;16.52;39.49
40850;BME280;26571;41.610;25.380;2023-04-09T09:48:00;98665.00;;;16.70;39.11
40850;BME280;26571;41.610;25.380;2023-04-09T09:50:26;98669.38;;;16.84;36.19
40850;BME280;26571;41.610;25.380;2023-04-09T09:52:57;98672.69;;;16.86;37.88
40850;BME280;26571;41.610;25.380;2023-04-09T09:55:25;98661.25;;;17.25;38.58
40850;BME280;26571;41.610;25.380;2023-04-09T09:57:51;98663.75;;;17.27;36.29
40850;BME280;26571;41.610;25.380;2023-04-09T10:00:18;98665.16;;;17.23;37.08
40850;BME280;26571;41.610;25.380;2023-04-09T10:02:58;98663.91;;;17.05;36.38
40850;BME280;26571;41.610;25.380;2023-04-09T10:05:28;98663.13;;;17.12;36.23
40850;BME280;26571;41.610;25.380;2023-04-09T10:07:54;98666.75;;;17.04;36.59
40850;BME280;26571;41.610;25.380;2023-04-09T10:10:21;98662.72;;;17.41;35.95
40850;BME280;26571;41.610;25.380;2023-04-09T10:12:47;98663.53;;;17.88;35.37
40850;BME280;26571;41.610;25.380;2023-04-09T10:15:12;98660.47;;;18.49;36.03
40850;BME280;26571;41.610;25.380;2023-04-09T10:17:38;98659.03;;;18.98;34.41
40850;BME280;26571;41.610;25.380;2023-04-09T10:20:21;98652.88;;;19.29;33.19
40850;BME280;26571;41.610;25.380;2023-04-09T10:22:48;98653.91;;;19.60;32.52
40850;BME280;26571;41.610;25.380;2023-04-09T10:25:15;98658.16;;;19.86;31.80
40850;BME280;26571;41.610;25.380;2023-04-09T10:27:41;98658.53;;;19.15;31.21
40850;BME280;26571;41.610;25.380;2023-04-09T10:30:08;98654.72;;;18.52;32.13
40850;BME280;26571;41.610;25.380;2023-04-09T10:32:34;98649.06;;;18.29;31.79
40850;BME280;26571;41.610;25.380;2023-04-09T10:35:01;98643.66;;;18.55;32.17
40850;BME280;26571;41.610;25.380;2023-04-09T10:37:28;98640.53;;;19.03;32.78
40850;BME280;26571;41.610;25.380;2023-04-09T10:39:53;98630.91;;;18.71;31.60
40850;BME280;26571;41.610;25.380;2023-04-09T10:42:25;98639.47;;;18.73;32.99
40850;BME280;26571;41.610;25.380;2023-04-09T10:45:03;98633.81;;;18.94;32.66
40850;BME280;26571;41.610;25.380;2023-04-09T10:47:32;98624.44;;;18.40;32.50
40850;BME280;26571;41.610;25.380;2023-04-09T10:50:03;98631.31;;;18.61;32.84
40850;BME280;26571;41.610;25.380;2023-04-09T10:52:37;98623.28;;;18.23;33.35
40850;BME280;26571;41.610;25.380;2023-04-09T10:55:04;98629.69;;;18.15;33.88
40850;BME280;26571;41.610;25.380;2023-04-09T10:57:30;98620.25;;;18.13;36.42
40850;BME280;26571;41.610;25.380;2023-04-09T10:59:56;98625.22;;;18.47;34.07
40850;BME280;26571;41.610;25.380;2023-04-09T11:07:27;98620.44;;;18.18;34.83
40850;BME280;26571;41.610;25.380;2023-04-09T11:09:54;98614.97;;;18.44;34.95
40850;BME280;26571;41.610;25.380;2023-04-09T11:12:19;98609.34;;;18.66;34.52
40850;BME280;26571;41.610;25.380;2023-04-09T11:14:44;98615.50;;;18.21;33.85
40850;BME280;26571;41.610;25.380;2023-04-09T11:17:10;98611.53;;;17.33;34.90
40850;BME280;26571;41.610;25.380;2023-04-09T11:19:36;98619.28;;;16.94;36.14
40850;BME280;26571;41.610;25.380;2023-04-09T11:22:04;98614.34;;;16.85;35.49
40850;BME280;26571;41.610;25.380;2023-04-09T11:24:40;98615.47;;;16.49;36.71
40850;BME280;26571;41.610;25.380;2023-04-09T11:27:06;98608.59;;;16.68;36.66
40850;BME280;26571;41.610;25.380;2023-04-09T11:29:31;98604.38;;;17.26;37.07
40850;BME280;26571;41.610;25.380;2023-04-09T11:31:58;98606.00;;;17.61;34.00
40850;BME280;26571;41.610;25.380;2023-04-09T11:34:26;98599.03;;;17.66;35.56
40850;BME280;26571;41.610;25.380;2023-04-09T11:36:51;98605.19;;;17.47;34.89
40850;BME280;26571;41.610;25.380;2023-04-09T11:39:17;98597.22;;;17.47;34.33
40850;BME280;26571;41.610;25.380;2023-04-09T11:41:42;98591.06;;;17.40;35.24
40850;BME280;26571;41.610;25.380;2023-04-09T11:44:07;98593.91;;;17.45;35.23
40850;BME280;26571;41.610;25.380;2023-04-09T11:46:33;98591.88;;;17.00;36.63
40850;BME280;26571;41.610;25.380;2023-04-09T11:48:58;98592.25;;;16.71;36.28
40850;BME280;26571;41.610;25.380;2023-04-09T11:51:24;98587.72;;;16.65;36.52
40850;BME280;26571;41.610;25.380;2023-04-09T11:53:51;98569.59;;;17.01;36.85
40850;BME280;26571;41.610;25.380;2023-04-09T11:56:16;98573.47;;;17.05;35.76
40850;BME280;26571;41.610;25.380;2023-04-09T11:58:45;98580.00;;;17.10;36.44
40850;BME280;26571;41.610;25.380;2023-04-09T12:01:14;98584.13;;;16.92;36.86
40850;BME280;26571;41.610;25.380;2023-04-09T12:03:39;98579.84;;;17.11;35.94
40850;BME280;26571;41.610;25.380;2023-04-09T12:06:05;98575.53;;;17.37;36.37
40850;BME280;26571;41.610;25.380;2023-04-09T12:08:34;98574.69;;;17.03;35.15
40850;BME280;26571;41.610;25.380;2023-04-09T12:11:06;98562.63;;;17.14;35.49
40850;BME280;26571;41.610;25.380;2023-04-09T12:13:32;98564.06;;;17.16;35.45
40850;BME280;26571;41.610;25.380;2023-04-09T12:15:59;98564.06;;;17.10;35.91
40850;BME280;26571;41.610;25.380;2023-04-09T12:18:24;98570.50;;;16.61;36.68
40850;BME280;26571;41.610;25.380;2023-04-09T12:20:50;98567.66;;;16.55;37.01
40850;BME280;26571;41.610;25.380;2023-04-09T12:23:15;98556.19;;;16.55;37.29
40850;BME280;26571;41.610;25.380;2023-04-09T12:25:41;98566.22;;;16.60;36.70
40850;BME280;26571;41.610;25.380;2023-04-09T12:28:07;98554.94;;;16.44;37.60
40850;BME280;26571;41.610;25.380;2023-04-09T12:30:33;98549.13;;;16.82;37.60
40850;BME280;26571;41.610;25.380;2023-04-09T12:32:58;98549.75;;;16.97;36.06
40850;BME280;26571;41.610;25.380;2023-04-09T12:35:24;98547.06;;;17.04;35.63
40850;BME280;26571;41.610;25.380;2023-04-09T12:37:49;98546.25;;;17.03;35.84
40850;BME280;26571;41.610;25.380;2023-04-09T12:40:14;98538.28;;;17.03;36.83
40850;BME280;26571;41.610;25.380;2023-04-09T12:42:41;98542.34;;;17.33;35.49
40850;BME280;26571;41.610;25.380;2023-04-09T12:45:07;98543.94;;;17.60;34.90
40850;BME280;26571;41.610;25.380;2023-04-09T12:47:33;98541.44;;;17.85;34.58
40850;BME280;26571;41.610;25.380;2023-04-09T12:49:58;98537.66;;;18.13;34.59
40850;BME280;26571;41.610;25.380;2023-04-09T12:52:24;98536.56;;;18.27;32.52
40850;BME280;26571;41.610;25.380;2023-04-09T12:54:50;98539.09;;;18.08;33.17
40850;BME280;26571;41.610;25.380;2023-04-09T12:57:16;98541.03;;;17.88;33.61
40850;BME280;26571;41.610;25.380;2023-04-09T12:59:41;98540.91;;;17.43;33.81
40850;BME280;26571;41.610;25.380;2023-04-09T13:02:06;98537.84;;;16.80;34.31
40850;BME280;26571;41.610;25.380;2023-04-09T13:04:32;98525.97;;;16.63;35.36
40850;BME280;26571;41.610;25.380;2023-04-09T13:06:57;98527.50;;;16.24;35.51
40850;BME280;26571;41.610;25.380;2023-04-09T13:09:22;98529.00;;;15.85;36.35
40850;BME280;26571;41.610;25.380;2023-04-09T13:11:48;98535.50;;;15.76;36.52